createdAt,value
2022-07-30T00:04:01.687Z,93623.03
2022-07-30T00:09:05.475Z,93624.47
2022-07-30T00:14:09.919Z,93615.38
2022-07-30T00:19:13.468Z,93610.69
2022-07-30T00:24:17.092Z,93616.50
2022-07-30T00:29:21.119Z,93606.69
2022-07-30T00:34:24.317Z,93613.41
2022-07-30T00:39:30.885Z,93595.97
2022-07-30T00:44:34.082Z,93611.19
2022-07-30T00:49:41.398Z,93603.63
2022-07-30T00:54:47.114Z,93608.50
2022-07-30T00:59:50.732Z,93611.38
2022-07-30T01:04:53.762Z,93607.06
2022-07-30T01:09:57.761Z,93615.16
2022-07-30T01:15:03.504Z,93609.47
2022-07-30T01:20:16.915Z,93604.38
2022-07-30T01:25:42.599Z,93597.38
2022-07-30T01:30:46.636Z,93608.31
2022-07-30T01:35:55.127Z,93566.47
2022-07-30T01:41:24.263Z,93546.63
2022-07-30T01:46:29.797Z,93598.09
2022-07-30T01:51:37.530Z,93598.81
2022-07-30T01:56:43.370Z,93602.59
2022-07-30T02:01:46.994Z,93593.88
2022-07-30T02:07:19.757Z,93600.63
2022-07-30T02:12:30.220Z,93603.94
2022-07-30T02:17:55.305Z,93576.84
2022-07-30T02:23:03.739Z,93572.69
2022-07-30T02:28:11.507Z,93573.47
2022-07-30T02:33:17.844Z,93572.09
2022-07-30T02:38:25.629Z,93567.09
2022-07-30T02:43:35.393Z,93550.06
2022-07-30T02:48:42.133Z,93560.16
2022-07-30T02:53:47.997Z,93556.19
2022-07-30T02:58:53.748Z,93552.47
2022-07-30T03:03:58.503Z,93550.66
2022-07-30T03:09:03.657Z,93536.50
2022-07-30T03:14:08.452Z,93541.59
2022-07-30T03:19:17.196Z,93535.53
2022-07-30T03:24:23.674Z,93538.03
2022-07-30T03:29:29.349Z,93538.72
2022-07-30T03:34:35.163Z,93546.69
2022-07-30T03:39:39.883Z,93545.22
2022-07-30T03:44:46.038Z,93551.63
2022-07-30T03:49:50.767Z,93554.16
2022-07-30T03:54:54.966Z,93550.28
2022-07-30T04:00:27.569Z,93558.50
2022-07-30T04:05:37.355Z,93552.91
2022-07-30T04:10:44.626Z,93546.91
2022-07-30T04:16:05.969Z,93559.63
2022-07-30T04:21:29.583Z,93558.84
2022-07-30T04:26:35.941Z,93560.06
2022-07-30T04:31:41.437Z,93567.44
2022-07-30T04:37:20.274Z,93571.94
2022-07-30T04:42:24.829Z,93576.34
2022-07-30T04:47:38.957Z,93567.75
2022-07-30T04:53:10.659Z,93579.75
2022-07-30T04:58:22.173Z,93582.19
2022-07-30T05:03:26.623Z,93583.19
2022-07-30T05:08:31.327Z,93576.34
2022-07-30T05:13:38.681Z,93584.16
2022-07-30T05:18:45.738Z,93579.97
2022-07-30T05:23:50.608Z,93584.44
2022-07-30T05:29:09.296Z,93579.75
2022-07-30T05:34:26.044Z,93583.88
2022-07-30T05:39:30.278Z,93575.94
2022-07-30T05:44:52.278Z,93573.88
2022-07-30T05:49:55.287Z,93583.19
2022-07-30T05:54:59.455Z,93582.19
2022-07-30T06:00:36.107Z,93577.00
2022-07-30T06:05:39.978Z,93587.94
2022-07-30T06:10:43.274Z,93589.00
2022-07-30T06:15:48.179Z,93589.84
2022-07-30T06:20:55.337Z,93598.47
2022-07-30T06:26:28.018Z,93588.00
2022-07-30T06:31:31.919Z,93580.66
2022-07-30T06:36:35.721Z,93587.19
2022-07-30T06:41:48.003Z,93584.81
2022-07-30T06:46:51.471Z,93590.16
2022-07-30T06:51:57.040Z,93586.22
2022-07-30T06:57:02.539Z,93603.03
2022-07-30T07:02:07.278Z,93592.44
2022-07-30T07:07:40.708Z,93582.53
2022-07-30T07:12:47.516Z,93592.56
2022-07-30T07:17:54.489Z,93587.44
2022-07-30T07:23:12.625Z,93594.19
2022-07-30T07:28:19.382Z,93585.09
2022-07-30T07:33:23.617Z,93596.03
2022-07-30T07:38:27.038Z,93598.84
2022-07-30T07:43:32.123Z,93598.34
2022-07-30T07:48:37.246Z,93599.75
2022-07-30T07:54:19.710Z,93601.50
2022-07-30T07:59:19.994Z,93567.41
2022-07-30T08:04:23.887Z,93594.09
2022-07-30T08:09:46.986Z,93582.53
2022-07-30T08:14:56.546Z,93604.59
2022-07-30T08:20:18.536Z,93599.97
2022-07-30T08:25:24.513Z,93601.09
2022-07-30T08:30:29.020Z,93605.22
2022-07-30T08:35:34.602Z,93603.28
2022-07-30T08:40:38.649Z,93606.34
2022-07-30T08:45:44.757Z,93623.94
2022-07-30T08:51:09.386Z,93623.59
2022-07-30T08:56:13.173Z,93616.38
2022-07-30T09:01:16.965Z,93622.78
2022-07-30T09:06:20.495Z,93612.34
2022-07-30T09:11:25.093Z,93623.56
2022-07-30T09:16:28.280Z,93612.50
2022-07-30T09:21:35.396Z,93623.78
2022-07-30T09:26:59.712Z,93630.75
2022-07-30T09:32:56.572Z,93624.44
2022-07-30T09:38:18.803Z,93611.97
2022-07-30T09:43:28.295Z,93624.03
2022-07-30T09:48:46.482Z,93620.97
2022-07-30T09:54:00.091Z,93613.41
2022-07-30T09:59:06.513Z,93608.91
2022-07-30T10:04:30.770Z,93611.47
2022-07-30T10:09:47.062Z,93608.63
2022-07-30T10:14:54.604Z,93590.81
2022-07-30T10:19:58.451Z,93609.53
2022-07-30T10:25:29.789Z,93609.28
2022-07-30T10:30:49.783Z,93597.38
2022-07-30T10:35:55.013Z,93607.81
2022-07-30T10:41:44.471Z,93604.69
2022-07-30T10:47:07.646Z,93611.50
2022-07-30T10:52:12.293Z,93606.72
2022-07-30T10:57:23.170Z,93607.41
2022-07-30T11:02:37.243Z,93610.13
2022-07-30T11:07:41.465Z,93603.28
2022-07-30T11:12:55.751Z,93609.94
2022-07-30T11:18:01.331Z,93602.72
2022-07-30T11:23:19.755Z,93605.91
2022-07-30T11:28:49.265Z,93608.41
2022-07-30T11:33:53.663Z,93590.91
2022-07-30T11:39:05.395Z,93600.59
2022-07-30T11:44:28.182Z,93608.41
2022-07-30T11:49:37.773Z,93600.41
2022-07-30T11:54:54.925Z,93607.81
2022-07-30T11:59:58.428Z,93589.41
2022-07-30T12:05:02.201Z,93593.91
2022-07-30T12:10:17.061Z,93592.06
2022-07-30T12:15:33.227Z,93580.00
2022-07-30T12:20:37.138Z,93582.53
2022-07-30T12:25:50.868Z,93586.88
2022-07-30T12:30:57.341Z,93586.56
2022-07-30T12:36:01.363Z,93579.09
2022-07-30T12:41:06.212Z,93576.47
2022-07-30T12:46:14.533Z,93572.84
2022-07-30T12:51:18.788Z,93569.28
2022-07-30T12:56:25.111Z,93557.91
2022-07-30T13:01:50.344Z,93556.44
2022-07-30T13:07:12.891Z,93564.31
2022-07-30T13:12:16.367Z,93568.28
2022-07-30T13:17:20.063Z,93562.69
2022-07-30T13:22:23.498Z,93561.03
2022-07-30T13:27:27.207Z,93553.59
2022-07-30T13:32:31.633Z,93561.56
2022-07-30T13:37:38.450Z,93554.28
2022-07-30T13:42:42.870Z,93541.78
2022-07-30T13:47:46.490Z,93552.28
2022-07-30T13:52:49.688Z,93559.28
2022-07-30T13:57:53.012Z,93547.59
2022-07-30T14:02:56.061Z,93549.88
2022-07-30T14:07:59.650Z,93561.84
2022-07-30T14:13:03.599Z,93555.84
2022-07-30T14:18:07.222Z,93540.19
2022-07-30T14:23:10.864Z,93536.38
2022-07-30T14:28:14.273Z,93563.53
2022-07-30T14:33:17.551Z,93554.75
2022-07-30T14:38:21.207Z,93541.97
2022-07-30T14:43:27.570Z,93536.09
2022-07-30T14:48:31.638Z,93543.75
2022-07-30T14:53:35.686Z,93547.16
2022-07-30T14:58:39.560Z,93544.31
2022-07-30T15:03:42.841Z,93536.91
2022-07-30T15:08:46.973Z,93530.28
2022-07-30T15:13:50.790Z,93534.63
2022-07-30T15:18:54.167Z,93526.22
2022-07-30T15:23:57.749Z,93526.81
2022-07-30T15:29:00.874Z,93526.53
2022-07-30T15:34:04.036Z,93525.66
2022-07-30T15:39:07.354Z,93512.53
2022-07-30T15:44:10.778Z,93503.94
2022-07-30T15:49:15.993Z,93521.66
2022-07-30T15:54:23.059Z,93534.19
2022-07-30T15:59:28.117Z,93526.19
2022-07-30T16:04:33.274Z,93531.34
2022-07-30T16:09:37.472Z,93529.69
2022-07-30T16:14:40.794Z,93532.59
2022-07-30T16:19:45.277Z,93523.66
2022-07-30T16:24:48.905Z,93532.19
2022-07-30T16:29:53.065Z,93534.72
2022-07-30T16:34:56.776Z,93540.03
2022-07-30T16:40:00.501Z,93540.53
2022-07-30T16:45:04.200Z,93543.06
2022-07-30T16:50:07.674Z,93544.06
2022-07-30T16:55:11.163Z,93537.81
2022-07-30T17:00:15.119Z,93543.19
2022-07-30T17:05:18.708Z,93540.78
2022-07-30T17:10:25.584Z,93549.38
2022-07-30T17:15:32.897Z,93546.56
2022-07-30T17:20:36.722Z,93549.03
2022-07-30T17:25:40.697Z,93540.56
2022-07-30T17:30:45.026Z,93542.94
2022-07-30T17:35:50.064Z,93549.53
2022-07-30T17:40:54.464Z,93549.66
2022-07-30T17:45:57.769Z,93553.53
2022-07-30T17:51:02.113Z,93554.31
2022-07-30T17:56:06.264Z,93556.97
2022-07-30T18:01:12.992Z,93565.00
2022-07-30T18:06:16.479Z,93566.41
2022-07-30T18:11:20.349Z,93568.41
2022-07-30T18:16:24.661Z,93576.28
2022-07-30T18:21:28.097Z,93574.66
2022-07-30T18:26:36.833Z,93574.78
2022-07-30T18:31:40.611Z,93575.38
2022-07-30T18:36:44.261Z,93572.41
2022-07-30T18:41:48.076Z,93572.41
2022-07-30T18:46:53.230Z,93572.94
2022-07-30T18:51:57.554Z,93569.19
2022-07-30T18:57:01.269Z,93576.13
2022-07-30T19:02:07.405Z,93578.25
2022-07-30T19:07:11.404Z,93589.41
2022-07-30T19:12:15.094Z,93595.06
2022-07-30T19:17:18.203Z,93587.13
2022-07-30T19:22:29.973Z,93594.56
2022-07-30T19:27:33.228Z,93597.34
2022-07-30T19:32:37.176Z,93600.47
2022-07-30T19:37:40.178Z,93614.66
2022-07-30T19:42:43.364Z,93612.81
2022-07-30T19:47:47.437Z,93615.75
2022-07-30T19:52:54.814Z,93595.66
2022-07-30T19:57:58.867Z,93616.78
2022-07-30T20:03:02.014Z,93618.56
2022-07-30T20:08:06.807Z,93617.78
2022-07-30T20:13:10.914Z,93618.00
2022-07-30T20:18:15.725Z,93615.16
2022-07-30T20:23:19.876Z,93623.28
2022-07-30T20:28:23.399Z,93631.09
2022-07-30T20:33:36.205Z,93623.66
2022-07-30T20:38:44.732Z,93627.66
2022-07-30T20:43:51.974Z,93625.63
2022-07-30T20:48:56.124Z,93616.81
2022-07-30T20:54:01.009Z,93614.31
2022-07-30T20:59:06.659Z,93608.53
2022-07-30T21:04:11.611Z,93619.13
2022-07-30T21:09:49.762Z,93620.22
2022-07-30T21:14:56.405Z,93621.63
2022-07-30T21:19:59.514Z,93616.50
2022-07-30T21:25:08.839Z,93611.78
2022-07-30T21:30:15.734Z,93615.44
2022-07-30T21:35:19.039Z,93615.03
2022-07-30T21:40:24.788Z,93615.31
2022-07-30T21:45:38.010Z,93611.69
2022-07-30T21:50:42.709Z,93616.41
2022-07-30T21:55:52.905Z,93616.63
2022-07-30T22:00:56.713Z,93613.81
2022-07-30T22:06:00.912Z,93608.56
2022-07-30T22:11:05.350Z,93595.22
2022-07-30T22:16:12.646Z,93612.31
2022-07-30T22:21:19.172Z,93599.47
2022-07-30T22:26:22.309Z,93603.19
2022-07-30T22:31:30.973Z,93605.19
2022-07-30T22:36:48.407Z,93603.56
2022-07-30T22:41:57.350Z,93608.09
2022-07-30T22:47:04.084Z,93605.53
2022-07-30T22:52:19.839Z,93602.09
2022-07-30T22:57:30.088Z,93604.66
2022-07-30T23:02:42.573Z,93609.03
2022-07-30T23:07:46.764Z,93597.25
2022-07-30T23:12:52.365Z,93604.50
2022-07-30T23:17:56.001Z,93597.25
2022-07-30T23:23:02.332Z,93597.25
2022-07-30T23:28:05.852Z,93593.28
2022-07-30T23:33:09.014Z,93591.44
2022-07-30T23:38:12.710Z,93586.78
2022-07-30T23:43:15.878Z,93575.41
2022-07-30T23:48:19.641Z,93570.94
2022-07-30T23:53:23.341Z,93552.63
2022-07-30T23:58:27.147Z,93557.13
